KRIV/RIV METAR and TAF weather

Enter ICAO airport designator
Station Type Date Time Source
KRIV METAR 2021/01/16 01:58 UTC NOAA

KRIV 160158Z AUTO 00000KT 10SM CLR 18/M06 A3008 RMK AO2 SLP179 T01821065


Station Type Date Time Source
KRIV Decoded METAR 2021/01/16 01:58 UTC NOAA

Riverside / March Air Force Base, CA, United States (KRIV) 33-54N 117-15W 468M
Jan 15, 2021 - 08:58 PM EST / 2021.01.16 0158 UTC
Wind: Calm:0
Visibility: 10 mile(s):0
Sky conditions: clear
Temperature: 64.8 F (18.2 C)
Dew Point: 20.3 F (-6.5 C)
Relative Humidity: 17%
Pressure (altimeter): 30.08 in. Hg (1018 hPa)
ob: KRIV 160158Z AUTO 00000KT 10SM CLR 18/M06 A3008 RMK AO2 SLP179 T01821065
cycle: 2

Station Type Date Time Source
KRIV TAF 2021/01/15 20:03 UTC NOAA

TAF KRIV 152000Z 1520/1702 35010KT 9999 SCT250 510003 520309 QNH3010INS WND300V050
BECMG 1603/1604 VRB05KT 9999 SCT250 QNH3000INS
BECMG 1616/1617 08009KT 9999 SCT250 510009 QNH2995INS WND 020V120
TEMPO 1720/1701 08012G18KT TX30/1522Z TN04/1614Z

Example: see airport list